sensor_id;sensor_type;location;lat;lon;timestamp;temperature;humidity
39847;DHT22;25517;52.422;10.782;2024-01-30T00:00:46;5.20;99.90
39847;DHT22;25517;52.422;10.782;2024-01-30T00:03:12;5.40;99.90
39847;DHT22;25517;52.422;10.782;2024-01-30T00:05:37;5.50;99.90
39847;DHT22;25517;52.422;10.782;2024-01-30T00:08:03;5.50;99.90
39847;DHT22;25517;52.422;10.782;2024-01-30T00:10:28;5.60;99.90
39847;DHT22;25517;52.422;10.782;2024-01-30T00:12:54;5.70;99.90
39847;DHT22;25517;52.422;10.782;2024-01-30T00:15:20;5.70;99.90
39847;DHT22;25517;52.422;10.782;2024-01-30T00:17:45;5.80;99.90
39847;DHT22;25517;52.422;10.782;2024-01-30T00:20:11;5.90;99.90
39847;DHT22;25517;52.422;10.782;2024-01-30T00:22:36;6.00;99.90
39847;DHT22;25517;52.422;10.782;2024-01-30T00:25:02;6.10;99.90
39847;DHT22;25517;52.422;10.782;2024-01-30T00:27:27;6.20;99.90
39847;DHT22;25517;52.422;10.782;2024-01-30T00:29:53;6.40;99.90
39847;DHT22;25517;52.422;10.782;2024-01-30T00:32:20;6.40;99.90
39847;DHT22;25517;52.422;10.782;2024-01-30T00:34:45;6.40;99.90
39847;DHT22;25517;52.422;10.782;2024-01-30T00:37:11;6.40;99.90
39847;DHT22;25517;52.422;10.782;2024-01-30T00:39:36;6.50;99.90
39847;DHT22;25517;52.422;10.782;2024-01-30T00:42:02;6.40;99.90
39847;DHT22;25517;52.422;10.782;2024-01-30T00:44:28;6.40;99.90
39847;DHT22;25517;52.422;10.782;2024-01-30T00:46:53;6.40;99.90
39847;DHT22;25517;52.422;10.782;2024-01-30T00:49:19;6.30;99.90
39847;DHT22;25517;52.422;10.782;2024-01-30T00:51:45;6.30;99.90
39847;DHT22;25517;52.422;10.782;2024-01-30T00:54:12;6.30;99.90
39847;DHT22;25517;52.422;10.782;2024-01-30T00:56:37;6.20;99.90
39847;DHT22;25517;52.422;10.782;2024-01-30T00:59:03;6.10;99.90
39847;DHT22;25517;52.422;10.782;2024-01-30T01:01:28;6.00;99.90
39847;DHT22;25517;52.422;10.782;2024-01-30T01:03:54;5.80;99.90
39847;DHT22;25517;52.422;10.782;2024-01-30T01:06:19;5.80;99.90
39847;DHT22;25517;52.422;10.782;2024-01-30T01:08:45;5.70;99.90
39847;DHT22;25517;52.422;10.782;2024-01-30T01:11:11;5.70;99.90
39847;DHT22;25517;52.422;10.782;2024-01-30T01:13:36;5.50;99.90
39847;DHT22;25517;52.422;10.782;2024-01-30T01:16:02;5.40;99.90
39847;DHT22;25517;52.422;10.782;2024-01-30T01:18:27;5.30;99.90
39847;DHT22;25517;52.422;10.782;2024-01-30T01:20:53;5.30;99.90
39847;DHT22;25517;52.422;10.782;2024-01-30T01:23:18;5.20;99.90
39847;DHT22;25517;52.422;10.782;2024-01-30T01:25:44;5.10;99.90
39847;DHT22;25517;52.422;10.782;2024-01-30T01:28:09;5.00;99.90
39847;DHT22;25517;52.422;10.782;2024-01-30T01:30:35;4.90;99.90
39847;DHT22;25517;52.422;10.782;2024-01-30T01:33:01;4.80;99.90
39847;DHT22;25517;52.422;10.782;2024-01-30T01:35:27;4.70;99.90
39847;DHT22;25517;52.422;10.782;2024-01-30T01:37:54;4.70;99.90
39847;DHT22;25517;52.422;10.782;2024-01-30T01:40:25;4.60;99.90
39847;DHT22;25517;52.422;10.782;2024-01-30T01:42:51;4.60;99.90
39847;DHT22;25517;52.422;10.782;2024-01-30T01:45:18;4.50;99.90
39847;DHT22;25517;52.422;10.782;2024-01-30T01:47:44;4.50;99.90
39847;DHT22;25517;52.422;10.782;2024-01-30T01:50:12;4.60;99.90
39847;DHT22;25517;52.422;10.782;2024-01-30T01:52:40;4.50;99.90
39847;DHT22;25517;52.422;10.782;2024-01-30T01:55:07;4.40;99.90
39847;DHT22;25517;52.422;10.782;2024-01-30T01:57:33;4.40;99.90
39847;DHT22;25517;52.422;10.782;2024-01-30T02:00:00;4.50;99.90
39847;DHT22;25517;52.422;10.782;2024-01-30T02:02:29;4.60;99.90
39847;DHT22;25517;52.422;10.782;2024-01-30T02:04:56;4.80;99.90
39847;DHT22;25517;52.422;10.782;2024-01-30T02:07:22;4.80;99.90
39847;DHT22;25517;52.422;10.782;2024-01-30T02:09:48;5.00;99.90
39847;DHT22;25517;52.422;10.782;2024-01-30T02:12:13;5.10;99.90
39847;DHT22;25517;52.422;10.782;2024-01-30T02:14:45;5.10;99.90
39847;DHT22;25517;52.422;10.782;2024-01-30T02:17:12;5.10;99.90
39847;DHT22;25517;52.422;10.782;2024-01-30T02:19:37;5.20;99.90
39847;DHT22;25517;52.422;10.782;2024-01-30T02:22:03;5.20;99.90
39847;DHT22;25517;52.422;10.782;2024-01-30T02:24:29;5.20;99.90
39847;DHT22;25517;52.422;10.782;2024-01-30T02:26:55;5.20;99.90
39847;DHT22;25517;52.422;10.782;2024-01-30T02:29:20;5.20;99.90
39847;DHT22;25517;52.422;10.782;2024-01-30T02:31:47;5.20;99.90
39847;DHT22;25517;52.422;10.782;2024-01-30T02:34:13;5.10;99.90
39847;DHT22;25517;52.422;10.782;2024-01-30T02:36:42;5.00;99.90
39847;DHT22;25517;52.422;10.782;2024-01-30T02:39:08;5.00;99.90
39847;DHT22;25517;52.422;10.782;2024-01-30T02:41:33;4.90;99.90
39847;DHT22;25517;52.422;10.782;2024-01-30T02:43:59;4.80;99.90
39847;DHT22;25517;52.422;10.782;2024-01-30T02:46:24;4.70;99.90
39847;DHT22;25517;52.422;10.782;2024-01-30T02:48:50;4.70;99.90
39847;DHT22;25517;52.422;10.782;2024-01-30T02:51:16;4.80;99.90
39847;DHT22;25517;52.422;10.782;2024-01-30T02:53:41;4.80;99.90
39847;DHT22;25517;52.422;10.782;2024-01-30T02:56:07;4.70;99.90
39847;DHT22;25517;52.422;10.782;2024-01-30T02:58:35;4.60;99.90
39847;DHT22;25517;52.422;10.782;2024-01-30T03:01:02;4.60;99.90
39847;DHT22;25517;52.422;10.782;2024-01-30T03:03:27;4.50;99.90
39847;DHT22;25517;52.422;10.782;2024-01-30T03:05:53;4.50;99.90
39847;DHT22;25517;52.422;10.782;2024-01-30T03:08:18;4.50;99.90
39847;DHT22;25517;52.422;10.782;2024-01-30T03:10:44;4.50;99.90
39847;DHT22;25517;52.422;10.782;2024-01-30T03:13:09;4.40;99.90
39847;DHT22;25517;52.422;10.782;2024-01-30T03:15:35;4.40;99.90
39847;DHT22;25517;52.422;10.782;2024-01-30T03:18:01;4.40;99.90
39847;DHT22;25517;52.422;10.782;2024-01-30T03:20:27;4.50;99.90
39847;DHT22;25517;52.422;10.782;2024-01-30T03:22:54;4.40;99.90
39847;DHT22;25517;52.422;10.782;2024-01-30T03:25:20;4.30;99.90
39847;DHT22;25517;52.422;10.782;2024-01-30T03:27:45;4.30;99.90
39847;DHT22;25517;52.422;10.782;2024-01-30T03:30:11;4.20;99.90
39847;DHT22;25517;52.422;10.782;2024-01-30T03:32:37;4.20;99.90
39847;DHT22;25517;52.422;10.782;2024-01-30T03:35:02;4.20;99.90
39847;DHT22;25517;52.422;10.782;2024-01-30T03:37:28;4.10;99.90
39847;DHT22;25517;52.422;10.782;2024-01-30T03:39:53;4.10;99.90
39847;DHT22;25517;52.422;10.782;2024-01-30T03:42:19;4.10;99.90
39847;DHT22;25517;52.422;10.782;2024-01-30T03:44:44;4.20;99.90
39847;DHT22;25517;52.422;10.782;2024-01-30T03:47:10;4.40;99.90
39847;DHT22;25517;52.422;10.782;2024-01-30T03:49:36;4.40;99.90
39847;DHT22;25517;52.422;10.782;2024-01-30T03:52:01;4.60;99.90
39847;DHT22;25517;52.422;10.782;2024-01-30T03:54:27;4.80;99.90
39847;DHT22;25517;52.422;10.782;2024-01-30T03:56:52;4.90;99.90
39847;DHT22;25517;52.422;10.782;2024-01-30T03:59:18;5.00;99.90
39847;DHT22;25517;52.422;10.782;2024-01-30T04:01:48;5.10;99.90
39847;DHT22;25517;52.422;10.782;2024-01-30T04:04:14;5.30;99.90
39847;DHT22;25517;52.422;10.782;2024-01-30T04:06:39;5.40;99.90
39847;DHT22;25517;52.422;10.782;2024-01-30T04:09:05;5.60;99.90
39847;DHT22;25517;52.422;10.782;2024-01-30T04:11:30;5.70;99.90
39847;DHT22;25517;52.422;10.782;2024-01-30T04:13:56;5.90;99.90
39847;DHT22;25517;52.422;10.782;2024-01-30T04:16:22;5.90;99.90
39847;DHT22;25517;52.422;10.782;2024-01-30T04:18:48;6.10;99.90
39847;DHT22;25517;52.422;10.782;2024-01-30T04:21:14;6.30;99.90
39847;DHT22;25517;52.422;10.782;2024-01-30T04:23:42;6.40;99.90
39847;DHT22;25517;52.422;10.782;2024-01-30T04:26:08;6.50;99.90
39847;DHT22;25517;52.422;10.782;2024-01-30T04:28:33;6.60;99.90
39847;DHT22;25517;52.422;10.782;2024-01-30T04:30:59;6.60;99.90
39847;DHT22;25517;52.422;10.782;2024-01-30T04:33:25;6.70;99.90
39847;DHT22;25517;52.422;10.782;2024-01-30T04:35:50;6.70;99.90
39847;DHT22;25517;52.422;10.782;2024-01-30T04:38:17;6.80;99.90
39847;DHT22;25517;52.422;10.782;2024-01-30T04:40:42;6.90;99.90
39847;DHT22;25517;52.422;10.782;2024-01-30T04:43:08;6.90;99.90
39847;DHT22;25517;52.422;10.782;2024-01-30T04:45:34;7.00;99.90
39847;DHT22;25517;52.422;10.782;2024-01-30T04:47:59;7.00;99.90
39847;DHT22;25517;52.422;10.782;2024-01-30T04:50:25;6.90;99.90
39847;DHT22;25517;52.422;10.782;2024-01-30T04:52:52;6.90;99.90
39847;DHT22;25517;52.422;10.782;2024-01-30T04:55:17;7.00;99.90
39847;DHT22;25517;52.422;10.782;2024-01-30T04:57:43;7.00;99.90
39847;DHT22;25517;52.422;10.782;2024-01-30T05:00:09;7.00;99.90
39847;DHT22;25517;52.422;10.782;2024-01-30T05:02:35;6.90;99.90
39847;DHT22;25517;52.422;10.782;2024-01-30T05:05:01;6.90;99.90
39847;DHT22;25517;52.422;10.782;2024-01-30T05:07:26;6.90;99.90
39847;DHT22;25517;52.422;10.782;2024-01-30T05:09:52;6.90;99.90
39847;DHT22;25517;52.422;10.782;2024-01-30T05:12:18;6.90;99.90
39847;DHT22;25517;52.422;10.782;2024-01-30T05:14:43;7.00;99.90
39847;DHT22;25517;52.422;10.782;2024-01-30T05:17:09;7.10;99.90
39847;DHT22;25517;52.422;10.782;2024-01-30T05:19:38;7.10;99.90
39847;DHT22;25517;52.422;10.782;2024-01-30T05:22:03;7.10;99.90
39847;DHT22;25517;52.422;10.782;2024-01-30T05:24:29;7.10;99.90
39847;DHT22;25517;52.422;10.782;2024-01-30T05:26:54;7.10;99.90
39847;DHT22;25517;52.422;10.782;2024-01-30T05:29:20;7.20;99.90
39847;DHT22;25517;52.422;10.782;2024-01-30T05:31:45;7.20;99.90
39847;DHT22;25517;52.422;10.782;2024-01-30T05:34:11;7.20;99.90
39847;DHT22;25517;52.422;10.782;2024-01-30T05:36:37;7.20;99.90
39847;DHT22;25517;52.422;10.782;2024-01-30T05:39:02;7.10;99.90
39847;DHT22;25517;52.422;10.782;2024-01-30T05:41:29;7.20;99.90
39847;DHT22;25517;52.422;10.782;2024-01-30T05:43:55;7.20;99.90
39847;DHT22;25517;52.422;10.782;2024-01-30T05:46:20;7.20;99.90
39847;DHT22;25517;52.422;10.782;2024-01-30T05:48:46;7.20;99.90
39847;DHT22;25517;52.422;10.782;2024-01-30T05:51:11;7.20;99.90
39847;DHT22;25517;52.422;10.782;2024-01-30T05:53:37;7.20;99.90
39847;DHT22;25517;52.422;10.782;2024-01-30T05:56:03;7.20;99.90
39847;DHT22;25517;52.422;10.782;2024-01-30T05:58:29;7.20;99.90
39847;DHT22;25517;52.422;10.782;2024-01-30T06:00:56;7.10;99.90
39847;DHT22;25517;52.422;10.782;2024-01-30T06:03:22;7.20;99.90
39847;DHT22;25517;52.422;10.782;2024-01-30T06:05:48;7.10;99.90
39847;DHT22;25517;52.422;10.782;2024-01-30T06:08:13;7.20;99.90
39847;DHT22;25517;52.422;10.782;2024-01-30T06:10:39;7.20;99.90
39847;DHT22;25517;52.422;10.782;2024-01-30T06:13:04;7.20;99.90
39847;DHT22;25517;52.422;10.782;2024-01-30T06:15:30;7.10;99.90
39847;DHT22;25517;52.422;10.782;2024-01-30T06:17:56;7.20;99.90
39847;DHT22;25517;52.422;10.782;2024-01-30T06:20:21;7.10;99.90
39847;DHT22;25517;52.422;10.782;2024-01-30T06:22:47;7.10;99.90
39847;DHT22;25517;52.422;10.782;2024-01-30T06:25:12;7.10;99.90
39847;DHT22;25517;52.422;10.782;2024-01-30T06:27:38;7.10;99.90
39847;DHT22;25517;52.422;10.782;2024-01-30T06:30:06;7.10;99.90
39847;DHT22;25517;52.422;10.782;2024-01-30T06:32:32;7.00;99.90
39847;DHT22;25517;52.422;10.782;2024-01-30T06:35:00;7.00;99.90
39847;DHT22;25517;52.422;10.782;2024-01-30T06:37:26;7.00;99.90
39847;DHT22;25517;52.422;10.782;2024-01-30T06:39:51;6.90;99.90
39847;DHT22;25517;52.422;10.782;2024-01-30T06:42:18;6.90;99.90
39847;DHT22;25517;52.422;10.782;2024-01-30T06:44:43;6.90;99.90
39847;DHT22;25517;52.422;10.782;2024-01-30T06:47:09;6.80;99.90
39847;DHT22;25517;52.422;10.782;2024-01-30T06:49:35;6.90;99.90
39847;DHT22;25517;52.422;10.782;2024-01-30T06:52:06;6.90;99.90
39847;DHT22;25517;52.422;10.782;2024-01-30T06:54:32;6.90;99.90
39847;DHT22;25517;52.422;10.782;2024-01-30T06:56:58;6.90;99.90
39847;DHT22;25517;52.422;10.782;2024-01-30T06:59:24;6.90;99.90
39847;DHT22;25517;52.422;10.782;2024-01-30T07:01:50;6.90;99.90
39847;DHT22;25517;52.422;10.782;2024-01-30T07:04:15;6.90;99.90
39847;DHT22;25517;52.422;10.782;2024-01-30T07:06:41;6.70;99.90
39847;DHT22;25517;52.422;10.782;2024-01-30T07:09:07;6.70;99.90
39847;DHT22;25517;52.422;10.782;2024-01-30T07:11:33;6.70;99.90
39847;DHT22;25517;52.422;10.782;2024-01-30T07:13:59;6.60;99.90
39847;DHT22;25517;52.422;10.782;2024-01-30T07:16:25;6.60;99.90
39847;DHT22;25517;52.422;10.782;2024-01-30T07:18:51;6.60;99.90
39847;DHT22;25517;52.422;10.782;2024-01-30T07:21:16;6.60;99.90
39847;DHT22;25517;52.422;10.782;2024-01-30T07:23:42;6.60;99.90
39847;DHT22;25517;52.422;10.782;2024-01-30T07:26:08;6.60;99.90
39847;DHT22;25517;52.422;10.782;2024-01-30T07:28:34;6.60;99.90
39847;DHT22;25517;52.422;10.782;2024-01-30T07:31:01;6.60;99.90
39847;DHT22;25517;52.422;10.782;2024-01-30T07:33:27;6.60;99.90
39847;DHT22;25517;52.422;10.782;2024-01-30T07:35:53;6.50;99.90
39847;DHT22;25517;52.422;10.782;2024-01-30T07:38:19;6.40;99.90
39847;DHT22;25517;52.422;10.782;2024-01-30T07:40:44;6.50;99.90
39847;DHT22;25517;52.422;10.782;2024-01-30T07:43:10;6.60;99.90
39847;DHT22;25517;52.422;10.782;2024-01-30T07:45:36;6.60;99.90
39847;DHT22;25517;52.422;10.782;2024-01-30T07:48:03;6.70;99.90
39847;DHT22;25517;52.422;10.782;2024-01-30T07:50:28;6.80;99.90
39847;DHT22;25517;52.422;10.782;2024-01-30T07:52:56;6.90;99.90
39847;DHT22;25517;52.422;10.782;2024-01-30T07:55:22;6.90;99.90
39847;DHT22;25517;52.422;10.782;2024-01-30T07:57:57;7.00;99.90
39847;DHT22;25517;52.422;10.782;2024-01-30T08:00:22;7.10;99.90
39847;DHT22;25517;52.422;10.782;2024-01-30T08:02:48;7.20;99.90
39847;DHT22;25517;52.422;10.782;2024-01-30T08:05:14;7.30;99.90
39847;DHT22;25517;52.422;10.782;2024-01-30T08:07:41;7.40;99.90
39847;DHT22;25517;52.422;10.782;2024-01-30T08:10:08;7.40;99.90
39847;DHT22;25517;52.422;10.782;2024-01-30T08:12:33;7.40;99.90
39847;DHT22;25517;52.422;10.782;2024-01-30T08:14:59;7.50;99.90
39847;DHT22;25517;52.422;10.782;2024-01-30T08:17:24;7.60;99.90
39847;DHT22;25517;52.422;10.782;2024-01-30T08:19:50;7.60;99.90
39847;DHT22;25517;52.422;10.782;2024-01-30T08:22:16;7.80;99.90
39847;DHT22;25517;52.422;10.782;2024-01-30T08:24:41;7.80;99.90
39847;DHT22;25517;52.422;10.782;2024-01-30T08:27:07;7.90;99.90
39847;DHT22;25517;52.422;10.782;2024-01-30T08:29:35;7.90;99.90
39847;DHT22;25517;52.422;10.782;2024-01-30T08:32:01;8.00;99.90
39847;DHT22;25517;52.422;10.782;2024-01-30T08:34:26;8.00;99.90
39847;DHT22;25517;52.422;10.782;2024-01-30T08:36:52;8.10;99.90
39847;DHT22;25517;52.422;10.782;2024-01-30T08:39:18;8.10;99.90
39847;DHT22;25517;52.422;10.782;2024-01-30T08:41:44;8.20;99.90
39847;DHT22;25517;52.422;10.782;2024-01-30T08:44:10;8.30;99.90
39847;DHT22;25517;52.422;10.782;2024-01-30T08:46:36;8.30;99.90
39847;DHT22;25517;52.422;10.782;2024-01-30T08:49:02;8.40;99.90
39847;DHT22;25517;52.422;10.782;2024-01-30T08:51:29;8.40;99.90
39847;DHT22;25517;52.422;10.782;2024-01-30T08:53:55;8.40;99.90
39847;DHT22;25517;52.422;10.782;2024-01-30T08:56:20;8.50;99.90
39847;DHT22;25517;52.422;10.782;2024-01-30T08:58:46;8.60;99.90
39847;DHT22;25517;52.422;10.782;2024-01-30T09:01:12;8.60;99.90
39847;DHT22;25517;52.422;10.782;2024-01-30T09:03:37;8.70;99.90
39847;DHT22;25517;52.422;10.782;2024-01-30T09:06:08;8.80;99.90
39847;DHT22;25517;52.422;10.782;2024-01-30T09:08:34;8.90;99.90
39847;DHT22;25517;52.422;10.782;2024-01-30T09:10:59;9.00;99.90
39847;DHT22;25517;52.422;10.782;2024-01-30T09:13:25;9.00;99.90
39847;DHT22;25517;52.422;10.782;2024-01-30T09:15:50;9.10;99.90
39847;DHT22;25517;52.422;10.782;2024-01-30T09:18:16;9.20;99.90
39847;DHT22;25517;52.422;10.782;2024-01-30T09:20:42;9.30;99.90
39847;DHT22;25517;52.422;10.782;2024-01-30T09:23:07;9.30;99.90
39847;DHT22;25517;52.422;10.782;2024-01-30T09:25:33;9.40;99.90
39847;DHT22;25517;52.422;10.782;2024-01-30T09:27:59;9.40;99.90
39847;DHT22;25517;52.422;10.782;2024-01-30T09:30:25;9.40;99.90
39847;DHT22;25517;52.422;10.782;2024-01-30T09:32:50;9.50;99.90
39847;DHT22;25517;52.422;10.782;2024-01-30T09:35:16;9.60;99.90
39847;DHT22;25517;52.422;10.782;2024-01-30T09:37:41;9.60;99.90
39847;DHT22;25517;52.422;10.782;2024-01-30T09:40:07;9.50;99.90
39847;DHT22;25517;52.422;10.782;2024-01-30T09:42:34;9.60;99.90
39847;DHT22;25517;52.422;10.782;2024-01-30T09:45:04;9.70;99.90
39847;DHT22;25517;52.422;10.782;2024-01-30T09:47:48;9.70;99.90
39847;DHT22;25517;52.422;10.782;2024-01-30T09:50:14;9.70;99.90
39847;DHT22;25517;52.422;10.782;2024-01-30T09:52:40;9.80;99.90
39847;DHT22;25517;52.422;10.782;2024-01-30T09:55:07;9.90;99.90
39847;DHT22;25517;52.422;10.782;2024-01-30T09:57:33;9.90;99.90
39847;DHT22;25517;52.422;10.782;2024-01-30T09:59:59;10.00;99.90
39847;DHT22;25517;52.422;10.782;2024-01-30T10:02:25;10.10;99.90
39847;DHT22;25517;52.422;10.782;2024-01-30T10:04:52;10.10;99.90
39847;DHT22;25517;52.422;10.782;2024-01-30T10:07:18;10.30;99.90
39847;DHT22;25517;52.422;10.782;2024-01-30T10:09:44;10.40;99.90
39847;DHT22;25517;52.422;10.782;2024-01-30T10:12:10;10.50;99.90
39847;DHT22;25517;52.422;10.782;2024-01-30T10:14:39;10.70;99.90
39847;DHT22;25517;52.422;10.782;2024-01-30T10:17:06;10.80;99.90
39847;DHT22;25517;52.422;10.782;2024-01-30T10:19:32;11.00;99.90
39847;DHT22;25517;52.422;10.782;2024-01-30T10:22:00;11.20;99.90
39847;DHT22;25517;52.422;10.782;2024-01-30T10:24:26;11.50;99.90
39847;DHT22;25517;52.422;10.782;2024-01-30T10:26:52;12.10;99.90
39847;DHT22;25517;52.422;10.782;2024-01-30T10:29:18;12.60;99.90
39847;DHT22;25517;52.422;10.782;2024-01-30T10:31:44;13.00;99.90
39847;DHT22;25517;52.422;10.782;2024-01-30T10:34:09;13.20;99.90
39847;DHT22;25517;52.422;10.782;2024-01-30T10:36:40;13.70;99.90
39847;DHT22;25517;52.422;10.782;2024-01-30T10:39:08;14.00;99.90
39847;DHT22;25517;52.422;10.782;2024-01-30T10:41:43;14.40;98.80
39847;DHT22;25517;52.422;10.782;2024-01-30T10:44:10;14.50;97.60
39847;DHT22;25517;52.422;10.782;2024-01-30T10:46:38;14.50;98.30
39847;DHT22;25517;52.422;10.782;2024-01-30T10:49:04;14.60;98.30
39847;DHT22;25517;52.422;10.782;2024-01-30T10:51:31;14.50;97.90
39847;DHT22;25517;52.422;10.782;2024-01-30T10:53:57;14.60;97.30
39847;DHT22;25517;52.422;10.782;2024-01-30T10:56:24;14.60;97.10
39847;DHT22;25517;52.422;10.782;2024-01-30T10:58:51;14.70;97.40
39847;DHT22;25517;52.422;10.782;2024-01-30T11:01:20;15.10;96.40
39847;DHT22;25517;52.422;10.782;2024-01-30T11:03:51;15.10;96.00
39847;DHT22;25517;52.422;10.782;2024-01-30T11:06:18;15.10;96.30
39847;DHT22;25517;52.422;10.782;2024-01-30T11:08:46;15.10;95.90
39847;DHT22;25517;52.422;10.782;2024-01-30T11:11:25;15.30;96.10
39847;DHT22;25517;52.422;10.782;2024-01-30T11:13:50;15.30;96.00
39847;DHT22;25517;52.422;10.782;2024-01-30T11:16:16;15.10;95.20
39847;DHT22;25517;52.422;10.782;2024-01-30T11:18:41;15.00;95.30
39847;DHT22;25517;52.422;10.782;2024-01-30T11:21:07;14.80;95.80
39847;DHT22;25517;52.422;10.782;2024-01-30T11:23:34;14.80;96.10
39847;DHT22;25517;52.422;10.782;2024-01-30T11:26:00;14.90;96.00
39847;DHT22;25517;52.422;10.782;2024-01-30T11:28:32;14.80;96.00
39847;DHT22;25517;52.422;10.782;2024-01-30T11:31:07;14.60;95.60
39847;DHT22;25517;52.422;10.782;2024-01-30T11:33:33;14.40;96.60
39847;DHT22;25517;52.422;10.782;2024-01-30T11:36:00;14.30;96.50
39847;DHT22;25517;52.422;10.782;2024-01-30T11:38:27;14.00;96.40
39847;DHT22;25517;52.422;10.782;2024-01-30T11:40:54;13.90;97.10
39847;DHT22;25517;52.422;10.782;2024-01-30T11:43:21;13.70;97.20
39847;DHT22;25517;52.422;10.782;2024-01-30T11:45:46;13.80;97.20
39847;DHT22;25517;52.422;10.782;2024-01-30T11:48:12;13.70;97.40
39847;DHT22;25517;52.422;10.782;2024-01-30T11:50:39;13.80;97.50
39847;DHT22;25517;52.422;10.782;2024-01-30T11:53:05;13.90;97.30
39847;DHT22;25517;52.422;10.782;2024-01-30T11:55:31;14.00;97.60
39847;DHT22;25517;52.422;10.782;2024-01-30T11:57:57;13.80;97.80
39847;DHT22;25517;52.422;10.782;2024-01-30T12:00:24;13.70;97.70
39847;DHT22;25517;52.422;10.782;2024-01-30T12:02:50;13.60;97.80
39847;DHT22;25517;52.422;10.782;2024-01-30T12:05:16;13.40;97.70
39847;DHT22;25517;52.422;10.782;2024-01-30T12:07:44;13.20;98.70
39847;DHT22;25517;52.422;10.782;2024-01-30T12:10:12;13.00;99.00
39847;DHT22;25517;52.422;10.782;2024-01-30T12:12:39;12.90;99.00
39847;DHT22;25517;52.422;10.782;2024-01-30T12:15:07;12.90;99.70
39847;DHT22;25517;52.422;10.782;2024-01-30T12:17:33;12.80;99.90
39847;DHT22;25517;52.422;10.782;2024-01-30T12:22:38;12.60;99.90
39847;DHT22;25517;52.422;10.782;2024-01-30T12:25:09;12.50;99.90
39847;DHT22;25517;52.422;10.782;2024-01-30T12:27:35;12.20;99.90
39847;DHT22;25517;52.422;10.782;2024-01-30T12:30:01;12.20;99.90
39847;DHT22;25517;52.422;10.782;2024-01-30T12:32:30;12.20;99.90
39847;DHT22;25517;52.422;10.782;2024-01-30T12:34:56;12.20;99.90
39847;DHT22;25517;52.422;10.782;2024-01-30T12:37:22;12.20;99.90
39847;DHT22;25517;52.422;10.782;2024-01-30T12:39:51;12.00;99.90
39847;DHT22;25517;52.422;10.782;2024-01-30T12:42:16;12.10;99.90
39847;DHT22;25517;52.422;10.782;2024-01-30T12:44:43;11.90;99.90
39847;DHT22;25517;52.422;10.782;2024-01-30T12:47:11;12.00;99.90
39847;DHT22;25517;52.422;10.782;2024-01-30T12:49:36;12.00;99.90
39847;DHT22;25517;52.422;10.782;2024-01-30T12:52:02;12.00;99.90
39847;DHT22;25517;52.422;10.782;2024-01-30T12:54:28;12.10;99.90
39847;DHT22;25517;52.422;10.782;2024-01-30T12:56:53;12.10;99.90
39847;DHT22;25517;52.422;10.782;2024-01-30T12:59:19;12.10;99.90
39847;DHT22;25517;52.422;10.782;2024-01-30T13:01:45;12.20;99.90
39847;DHT22;25517;52.422;10.782;2024-01-30T13:04:11;12.30;99.90
39847;DHT22;25517;52.422;10.782;2024-01-30T13:06:36;12.40;99.90
39847;DHT22;25517;52.422;10.782;2024-01-30T13:09:02;12.30;99.90
39847;DHT22;25517;52.422;10.782;2024-01-30T13:11:28;12.30;99.90
39847;DHT22;25517;52.422;10.782;2024-01-30T13:13:53;12.40;99.90
39847;DHT22;25517;52.422;10.782;2024-01-30T13:16:19;12.30;99.90
39847;DHT22;25517;52.422;10.782;2024-01-30T13:18:44;12.40;99.90
39847;DHT22;25517;52.422;10.782;2024-01-30T13:21:10;12.30;99.90
39847;DHT22;25517;52.422;10.782;2024-01-30T13:23:35;12.30;99.90
39847;DHT22;25517;52.422;10.782;2024-01-30T13:26:01;12.30;99.90
39847;DHT22;25517;52.422;10.782;2024-01-30T13:28:27;12.30;99.90
39847;DHT22;25517;52.422;10.782;2024-01-30T13:30:53;12.30;99.90
39847;DHT22;25517;52.422;10.782;2024-01-30T13:33:19;12.30;99.90
39847;DHT22;25517;52.422;10.782;2024-01-30T13:35:44;12.20;99.90
39847;DHT22;25517;52.422;10.782;2024-01-30T13:38:10;12.20;99.90
39847;DHT22;25517;52.422;10.782;2024-01-30T13:40:35;12.10;99.90
39847;DHT22;25517;52.422;10.782;2024-01-30T13:43:01;12.00;99.90
39847;DHT22;25517;52.422;10.782;2024-01-30T13:45:27;12.00;99.90
39847;DHT22;25517;52.422;10.782;2024-01-30T13:47:52;12.00;99.90
39847;DHT22;25517;52.422;10.782;2024-01-30T13:50:18;11.90;99.90
39847;DHT22;25517;52.422;10.782;2024-01-30T13:52:44;11.80;99.90
39847;DHT22;25517;52.422;10.782;2024-01-30T13:55:10;11.80;99.90
39847;DHT22;25517;52.422;10.782;2024-01-30T13:57:36;11.70;99.90
39847;DHT22;25517;52.422;10.782;2024-01-30T14:00:03;11.70;99.90
39847;DHT22;25517;52.422;10.782;2024-01-30T14:02:32;11.60;99.90
39847;DHT22;25517;52.422;10.782;2024-01-30T14:04:58;11.50;99.90
39847;DHT22;25517;52.422;10.782;2024-01-30T14:07:24;11.50;99.90
39847;DHT22;25517;52.422;10.782;2024-01-30T14:09:49;11.50;99.90
39847;DHT22;25517;52.422;10.782;2024-01-30T14:12:15;11.40;99.90
39847;DHT22;25517;52.422;10.782;2024-01-30T14:14:41;11.40;99.90
39847;DHT22;25517;52.422;10.782;2024-01-30T14:17:07;11.40;99.90
39847;DHT22;25517;52.422;10.782;2024-01-30T14:19:35;11.40;99.90
39847;DHT22;25517;52.422;10.782;2024-01-30T14:22:01;11.40;99.90
39847;DHT22;25517;52.422;10.782;2024-01-30T14:24:27;11.40;99.90
39847;DHT22;25517;52.422;10.782;2024-01-30T14:26:53;11.40;99.90
39847;DHT22;25517;52.422;10.782;2024-01-30T14:29:18;11.30;99.90
39847;DHT22;25517;52.422;10.782;2024-01-30T14:31:44;11.30;99.90
39847;DHT22;25517;52.422;10.782;2024-01-30T14:34:09;11.30;99.90
39847;DHT22;25517;52.422;10.782;2024-01-30T14:36:37;11.30;99.90
39847;DHT22;25517;52.422;10.782;2024-01-30T14:39:02;11.30;99.90
39847;DHT22;25517;52.422;10.782;2024-01-30T14:41:29;11.20;99.90
39847;DHT22;25517;52.422;10.782;2024-01-30T14:43:54;11.20;99.90
39847;DHT22;25517;52.422;10.782;2024-01-30T14:46:20;11.10;99.90
39847;DHT22;25517;52.422;10.782;2024-01-30T14:48:47;11.10;99.90
39847;DHT22;25517;52.422;10.782;2024-01-30T14:51:12;11.10;99.90
39847;DHT22;25517;52.422;10.782;2024-01-30T14:53:39;11.10;99.90
39847;DHT22;25517;52.422;10.782;2024-01-30T14:56:05;11.10;99.90
39847;DHT22;25517;52.422;10.782;2024-01-30T14:58:30;11.10;99.90
39847;DHT22;25517;52.422;10.782;2024-01-30T15:00:56;11.10;99.90
39847;DHT22;25517;52.422;10.782;2024-01-30T15:03:22;11.10;99.90
39847;DHT22;25517;52.422;10.782;2024-01-30T15:05:47;11.00;99.90
39847;DHT22;25517;52.422;10.782;2024-01-30T15:08:13;11.00;99.90
39847;DHT22;25517;52.422;10.782;2024-01-30T15:10:38;11.00;99.90
39847;DHT22;25517;52.422;10.782;2024-01-30T15:13:04;11.00;99.90
39847;DHT22;25517;52.422;10.782;2024-01-30T15:15:30;11.00;99.90
39847;DHT22;25517;52.422;10.782;2024-01-30T15:17:56;10.90;99.90
39847;DHT22;25517;52.422;10.782;2024-01-30T15:20:22;10.90;99.90